createdAt,value
2019-01-03T00:00:08.421Z,20.67
2019-01-03T00:01:08.410Z,20.71
2019-01-03T00:02:08.407Z,20.71
2019-01-03T00:03:08.397Z,20.73
2019-01-03T00:04:08.382Z,20.67
2019-01-03T00:05:08.375Z,20.63
2019-01-03T00:06:08.359Z,20.68
2019-01-03T00:07:08.349Z,20.59
2019-01-03T00:08:08.341Z,20.70
2019-01-03T00:09:08.336Z,20.70
2019-01-03T00:10:08.314Z,20.68
2019-01-03T00:11:08.309Z,20.66
2019-01-03T00:12:08.294Z,20.63
2019-01-03T00:13:08.292Z,20.73
2019-01-03T00:14:08.275Z,20.58
2019-01-03T00:15:08.267Z,20.70
2019-01-03T00:16:08.249Z,20.63
2019-01-03T00:17:08.251Z,20.58
2019-01-03T00:18:08.234Z,20.67
2019-01-03T00:19:08.222Z,20.68
2019-01-03T00:20:08.219Z,20.66
2019-01-03T00:21:08.206Z,20.63
2019-01-03T00:22:08.198Z,20.58
2019-01-03T00:23:08.202Z,20.60
2019-01-03T00:24:08.172Z,20.68
2019-01-03T00:25:08.162Z,20.58
2019-01-03T00:26:08.154Z,20.64
2019-01-03T00:27:08.142Z,20.63
2019-01-03T00:28:08.193Z,20.71
2019-01-03T00:29:08.118Z,20.66
2019-01-03T00:30:08.109Z,20.58
2019-01-03T00:31:08.107Z,20.68
2019-01-03T00:32:08.092Z,20.66
2019-01-03T00:33:08.078Z,20.64
2019-01-03T00:34:08.070Z,20.66
2019-01-03T00:35:08.070Z,20.67
2019-01-03T00:36:08.052Z,20.71
2019-01-03T00:37:08.040Z,20.70
2019-01-03T00:38:08.029Z,20.66
2019-01-03T00:39:08.020Z,20.63
2019-01-03T00:40:08.010Z,20.64
2019-01-03T00:41:07.998Z,20.68
2019-01-03T00:42:07.990Z,20.67
2019-01-03T00:43:07.976Z,20.66
2019-01-03T00:44:07.967Z,20.60
2019-01-03T00:45:07.960Z,20.67
2019-01-03T00:46:07.947Z,20.66
2019-01-03T00:47:07.937Z,20.63
2019-01-03T00:48:07.921Z,20.64
2019-01-03T00:49:07.911Z,20.64
2019-01-03T00:50:07.905Z,20.64
2019-01-03T00:51:07.892Z,20.70
2019-01-03T00:52:07.883Z,20.64
2019-01-03T00:53:07.876Z,20.60
2019-01-03T00:54:07.863Z,20.68
2019-01-03T00:55:07.851Z,20.64
2019-01-03T00:56:07.840Z,20.68
2019-01-03T00:57:07.834Z,20.68
2019-01-03T00:58:07.826Z,20.67
2019-01-03T00:59:07.807Z,20.66
2019-01-03T01:00:07.805Z,20.59
2019-01-03T01:01:07.829Z,20.59
2019-01-03T01:02:07.779Z,20.60
2019-01-03T01:03:07.763Z,20.64
2019-01-03T01:04:07.758Z,20.64
2019-01-03T01:05:07.751Z,20.66
2019-01-03T01:06:07.744Z,20.66
2019-01-03T01:07:07.727Z,20.56
2019-01-03T01:08:07.718Z,20.64
2019-01-03T01:09:07.704Z,20.59
2019-01-03T01:10:07.695Z,20.60
2019-01-03T01:11:07.686Z,20.66
2019-01-03T01:12:07.677Z,20.58
2019-01-03T01:13:07.664Z,20.64
2019-01-03T01:14:07.653Z,20.59
2019-01-03T01:15:07.639Z,20.67
2019-01-03T01:16:07.634Z,20.56
2019-01-03T01:17:07.620Z,20.59
2019-01-03T01:18:07.608Z,20.64
2019-01-03T01:19:07.610Z,20.58
2019-01-03T01:20:07.595Z,20.58
2019-01-03T01:21:07.574Z,20.60
2019-01-03T01:22:07.572Z,20.64
2019-01-03T01:23:07.560Z,20.56
2019-01-03T01:24:07.554Z,20.59
2019-01-03T01:25:07.542Z,20.52
2019-01-03T01:26:07.530Z,20.56
2019-01-03T01:27:07.516Z,20.55
2019-01-03T01:28:07.515Z,20.58
2019-01-03T01:29:07.498Z,20.60
2019-01-03T01:30:07.489Z,20.53
2019-01-03T01:31:07.478Z,20.53
2019-01-03T01:32:07.465Z,20.55
2019-01-03T01:33:07.457Z,20.58
2019-01-03T01:34:07.447Z,20.53
2019-01-03T01:35:07.440Z,20.58
2019-01-03T01:36:07.433Z,20.55
2019-01-03T01:37:07.414Z,20.52
2019-01-03T01:38:07.406Z,20.56
2019-01-03T01:39:07.401Z,20.56
2019-01-03T01:40:07.384Z,20.53
2019-01-03T01:41:07.373Z,20.59
2019-01-03T01:42:07.362Z,20.55
2019-01-03T01:43:07.357Z,20.56
2019-01-03T01:44:07.340Z,20.52
2019-01-03T01:45:07.327Z,20.58
2019-01-03T01:46:07.321Z,20.59
2019-01-03T01:47:07.318Z,20.53
2019-01-03T01:48:07.313Z,20.56
2019-01-03T01:49:07.292Z,20.66
2019-01-03T01:50:07.281Z,20.58
2019-01-03T01:51:07.278Z,20.59
2019-01-03T01:52:07.259Z,20.56
2019-01-03T01:53:07.250Z,20.55
2019-01-03T01:54:07.237Z,20.56
2019-01-03T01:55:07.234Z,20.67
2019-01-03T01:56:07.218Z,20.60
2019-01-03T01:57:07.214Z,20.55
2019-01-03T01:58:07.198Z,20.59
2019-01-03T01:59:07.188Z,20.55
2019-01-03T02:00:07.179Z,20.60
2019-01-03T02:01:07.166Z,20.59
2019-01-03T02:02:07.154Z,20.56
2019-01-03T02:03:07.148Z,20.58
2019-01-03T02:04:07.135Z,20.55
2019-01-03T02:05:07.124Z,20.55
2019-01-03T02:06:07.115Z,20.52
2019-01-03T02:07:07.101Z,20.53
2019-01-03T02:08:07.091Z,20.55
2019-01-03T02:09:07.082Z,20.56
2019-01-03T02:10:07.074Z,20.56
2019-01-03T02:11:07.066Z,20.53
2019-01-03T02:12:07.055Z,20.58
2019-01-03T02:13:07.039Z,20.56
2019-01-03T02:14:07.029Z,20.63
2019-01-03T02:15:07.015Z,20.52
2019-01-03T02:16:07.018Z,20.63
2019-01-03T02:17:07.000Z,20.56
2019-01-03T02:18:06.988Z,20.52
2019-01-03T02:19:06.980Z,20.52
2019-01-03T02:20:06.970Z,20.50
2019-01-03T02:21:06.957Z,20.53
2019-01-03T02:22:06.946Z,20.50
2019-01-03T02:23:06.941Z,20.53
2019-01-03T02:24:06.924Z,20.49
2019-01-03T02:25:06.914Z,20.53
2019-01-03T02:26:06.904Z,20.55
2019-01-03T02:27:06.894Z,20.50
2019-01-03T02:28:06.882Z,20.48
2019-01-03T02:29:06.874Z,20.53
2019-01-03T02:30:06.867Z,20.53
2019-01-03T02:31:06.864Z,20.52
2019-01-03T02:32:06.849Z,20.53
2019-01-03T02:33:06.829Z,20.50
2019-01-03T02:34:06.823Z,20.46
2019-01-03T02:35:06.811Z,20.48
2019-01-03T02:36:06.800Z,20.48
2019-01-03T02:37:06.788Z,20.53
2019-01-03T02:38:06.781Z,20.55
2019-01-03T02:39:06.768Z,20.50
2019-01-03T02:40:06.759Z,20.48
2019-01-03T02:41:06.747Z,20.53
2019-01-03T02:42:06.733Z,20.46
2019-01-03T02:43:06.726Z,20.52
2019-01-03T02:44:06.726Z,20.52
2019-01-03T02:45:06.710Z,20.50
2019-01-03T02:46:06.698Z,20.52
2019-01-03T02:47:06.681Z,20.44
2019-01-03T02:48:06.678Z,20.48
2019-01-03T02:49:06.664Z,20.53
2019-01-03T02:50:06.655Z,20.53
2019-01-03T02:51:06.642Z,20.50
2019-01-03T02:52:06.633Z,20.49
2019-01-03T02:53:06.630Z,20.48
2019-01-03T02:54:06.609Z,20.49
2019-01-03T02:55:06.603Z,20.52
2019-01-03T02:56:06.594Z,20.49
2019-01-03T02:57:06.580Z,20.53
2019-01-03T02:58:06.574Z,20.49
2019-01-03T02:59:06.565Z,20.56
2019-01-03T03:00:06.543Z,20.52
2019-01-03T03:01:06.534Z,20.46
2019-01-03T03:02:06.529Z,20.49
2019-01-03T03:03:06.521Z,20.52
2019-01-03T03:04:06.507Z,20.50
2019-01-03T03:05:06.497Z,20.44
2019-01-03T03:06:06.487Z,20.50
2019-01-03T03:07:06.476Z,20.40
2019-01-03T03:08:06.466Z,20.49
2019-01-03T03:09:06.456Z,20.53
2019-01-03T03:10:06.442Z,20.56
2019-01-03T03:11:06.437Z,20.49
2019-01-03T03:12:06.433Z,20.40
2019-01-03T03:13:06.412Z,20.50
2019-01-03T03:14:06.404Z,20.46
2019-01-03T03:15:06.394Z,20.46
2019-01-03T03:16:06.385Z,20.40
2019-01-03T03:17:06.376Z,20.44
2019-01-03T03:18:06.359Z,20.34
2019-01-03T03:19:06.348Z,20.46
2019-01-03T03:20:06.340Z,20.40
2019-01-03T03:21:06.333Z,20.42
2019-01-03T03:22:06.316Z,20.40
2019-01-03T03:23:06.308Z,20.42
2019-01-03T03:24:06.297Z,20.40
2019-01-03T03:25:06.288Z,20.49
2019-01-03T03:26:06.278Z,20.42
2019-01-03T03:27:06.270Z,20.39
2019-01-03T03:28:06.259Z,20.39
2019-01-03T03:29:06.246Z,20.39
2019-01-03T03:30:06.235Z,20.37
2019-01-03T03:31:06.235Z,20.42
2019-01-03T03:32:06.220Z,20.42
2019-01-03T03:33:06.205Z,20.39
2019-01-03T03:34:06.199Z,20.39
2019-01-03T03:35:06.181Z,20.46
2019-01-03T03:36:06.169Z,20.40
2019-01-03T03:37:06.165Z,20.46
2019-01-03T03:38:06.147Z,20.42
2019-01-03T03:39:06.140Z,20.48
2019-01-03T03:40:06.133Z,20.46
2019-01-03T03:41:06.120Z,20.52
2019-01-03T03:42:06.108Z,20.42
2019-01-03T03:43:06.121Z,20.46
2019-01-03T03:44:06.089Z,20.53
2019-01-03T03:45:06.082Z,20.50
2019-01-03T03:46:06.067Z,20.52
2019-01-03T03:47:06.059Z,20.56
2019-01-03T03:48:06.046Z,20.46
2019-01-03T03:49:06.033Z,20.53
2019-01-03T03:50:06.026Z,20.53
2019-01-03T03:51:06.017Z,20.56
2019-01-03T03:52:06.004Z,20.49
2019-01-03T03:53:05.994Z,20.46
2019-01-03T03:54:05.988Z,20.48
2019-01-03T03:55:05.976Z,20.52
2019-01-03T03:56:05.966Z,20.55
2019-01-03T03:57:05.945Z,20.58
2019-01-03T03:58:05.942Z,20.53
2019-01-03T03:59:05.942Z,20.58
2019-01-03T04:00:05.920Z,20.55
2019-01-03T04:01:05.917Z,20.68
2019-01-03T04:02:05.905Z,20.58
2019-01-03T04:03:05.890Z,20.66
2019-01-03T04:04:05.880Z,20.66
2019-01-03T04:05:05.865Z,20.64
2019-01-03T04:06:05.859Z,20.58
2019-01-03T04:07:05.861Z,20.73
2019-01-03T04:08:05.837Z,20.66
2019-01-03T04:09:05.827Z,20.63
2019-01-03T04:10:05.815Z,20.74
2019-01-03T04:11:05.808Z,20.59
2019-01-03T04:12:05.797Z,20.68
2019-01-03T04:13:05.787Z,20.67
2019-01-03T04:14:05.782Z,20.73
2019-01-03T04:15:05.767Z,20.64
2019-01-03T04:16:05.751Z,20.68
2019-01-03T04:17:05.739Z,20.59
2019-01-03T04:18:05.743Z,20.67
2019-01-03T04:19:05.724Z,20.73
2019-01-03T04:20:05.714Z,20.60
2019-01-03T04:21:05.699Z,20.67
2019-01-03T04:22:05.691Z,20.67
2019-01-03T04:23:05.678Z,20.67
2019-01-03T04:24:05.672Z,20.73
2019-01-03T04:25:05.659Z,20.63
2019-01-03T04:26:05.646Z,20.64
2019-01-03T04:27:05.640Z,20.64
2019-01-03T04:28:05.626Z,20.60
2019-01-03T04:29:05.618Z,20.68
2019-01-03T04:30:05.608Z,20.63
2019-01-03T04:31:05.599Z,20.64
2019-01-03T04:32:05.591Z,20.60
2019-01-03T04:33:05.575Z,20.66
2019-01-03T04:34:05.565Z,20.59
2019-01-03T04:35:05.553Z,20.64
2019-01-03T04:36:05.544Z,20.59
2019-01-03T04:37:05.529Z,20.60
2019-01-03T04:38:05.522Z,20.53
2019-01-03T04:39:05.515Z,20.55
2019-01-03T04:40:05.503Z,20.55
2019-01-03T04:41:05.493Z,20.53
2019-01-03T04:42:05.483Z,20.52
2019-01-03T04:43:05.469Z,20.56
2019-01-03T04:44:05.463Z,20.50
2019-01-03T04:45:05.448Z,20.50
2019-01-03T04:46:05.448Z,20.55
2019-01-03T04:47:05.429Z,20.55
2019-01-03T04:48:05.416Z,20.50
2019-01-03T04:49:05.414Z,20.53
2019-01-03T04:50:05.399Z,20.52
2019-01-03T04:51:05.389Z,20.56
2019-01-03T04:52:05.368Z,20.58
2019-01-03T04:53:05.367Z,20.52
2019-01-03T04:54:05.353Z,20.49
2019-01-03T04:55:05.345Z,20.58
2019-01-03T04:56:05.333Z,20.55
2019-01-03T04:57:05.319Z,20.53
2019-01-03T04:58:05.316Z,20.52
2019-01-03T04:59:05.308Z,20.50
2019-01-03T05:00:05.294Z,20.53
2019-01-03T05:01:05.286Z,20.50
2019-01-03T05:02:05.271Z,20.55
2019-01-03T05:03:05.259Z,20.52
2019-01-03T05:04:05.250Z,20.55
2019-01-03T05:05:05.251Z,20.52
2019-01-03T05:06:05.228Z,20.53
2019-01-03T05:07:05.221Z,20.52
2019-01-03T05:08:05.217Z,20.58
2019-01-03T05:09:05.198Z,20.60
2019-01-03T05:10:05.190Z,20.52
2019-01-03T05:11:05.176Z,20.19
2019-01-03T05:12:05.163Z,19.63
2019-01-03T05:13:05.160Z,19.05
2019-01-03T05:14:05.151Z,18.66
2019-01-03T05:15:05.152Z,18.43
2019-01-03T05:16:05.132Z,18.28
2019-01-03T05:17:05.121Z,18.27
2019-01-03T05:18:05.104Z,18.33
2019-01-03T05:19:05.096Z,18.34
2019-01-03T05:20:05.080Z,18.51
2019-01-03T05:21:05.081Z,18.52
2019-01-03T05:22:05.055Z,18.64
2019-01-03T05:23:05.054Z,18.74
2019-01-03T05:24:05.036Z,18.71
2019-01-03T05:25:05.032Z,18.86
2019-01-03T05:26:05.016Z,18.98
2019-01-03T05:27:05.008Z,19.00
2019-01-03T05:28:04.994Z,19.16
2019-01-03T05:29:04.980Z,19.20
2019-01-03T05:30:04.967Z,19.38
2019-01-03T05:31:04.961Z,19.35
2019-01-03T05:32:04.955Z,19.53
2019-01-03T05:33:04.951Z,19.49
2019-01-03T05:34:04.924Z,19.60
2019-01-03T05:35:04.911Z,19.66
2019-01-03T05:36:04.902Z,19.66
2019-01-03T05:37:04.899Z,19.74
2019-01-03T05:38:04.886Z,19.92
2019-01-03T05:39:04.867Z,19.90
2019-01-03T05:40:04.861Z,19.97
2019-01-03T05:41:05.194Z,20.00
2019-01-03T05:42:04.837Z,20.03
2019-01-03T05:43:04.828Z,20.07
2019-01-03T05:44:04.817Z,20.02
2019-01-03T05:45:04.800Z,20.14
2019-01-03T05:46:04.801Z,20.10
2019-01-03T05:47:04.785Z,20.21
2019-01-03T05:48:04.778Z,20.21
2019-01-03T05:49:04.770Z,20.18
2019-01-03T05:50:04.760Z,20.17
2019-01-03T05:51:04.743Z,20.29
2019-01-03T05:52:04.732Z,20.30
2019-01-03T05:53:04.721Z,20.27
2019-01-03T05:54:04.710Z,20.32
2019-01-03T05:55:04.698Z,20.33
2019-01-03T05:56:04.684Z,20.32
2019-01-03T05:57:04.680Z,20.33
2019-01-03T05:58:04.664Z,20.36
2019-01-03T05:59:04.658Z,20.36
2019-01-03T06:00:04.645Z,20.32
2019-01-03T06:01:04.630Z,20.36
2019-01-03T06:02:04.620Z,20.36
2019-01-03T06:03:04.609Z,20.36
2019-01-03T06:04:04.600Z,20.32
2019-01-03T06:05:04.589Z,20.36
2019-01-03T06:06:04.569Z,20.37
2019-01-03T06:07:04.566Z,20.33
2019-01-03T06:08:04.561Z,20.32
2019-01-03T06:09:04.543Z,20.33
2019-01-03T06:10:04.534Z,20.30
2019-01-03T06:11:04.524Z,20.32
2019-01-03T06:12:04.513Z,20.32
2019-01-03T06:13:04.502Z,20.36
2019-01-03T06:14:04.496Z,20.33
2019-01-03T06:15:04.478Z,20.33
2019-01-03T06:16:04.471Z,20.33
2019-01-03T06:17:04.465Z,20.36
2019-01-03T06:18:04.443Z,20.29
2019-01-03T06:19:04.443Z,20.33
2019-01-03T06:20:04.429Z,20.34
2019-01-03T06:21:04.418Z,20.33
2019-01-03T06:22:04.407Z,20.34
2019-01-03T06:23:04.397Z,20.29
2019-01-03T06:24:04.380Z,20.34
2019-01-03T06:25:04.375Z,20.32
2019-01-03T06:26:04.361Z,20.34
2019-01-03T06:27:04.371Z,20.34
2019-01-03T06:28:04.343Z,20.32
2019-01-03T06:29:04.336Z,20.34
2019-01-03T06:30:04.324Z,20.30
2019-01-03T06:31:04.312Z,20.32
2019-01-03T06:32:04.346Z,20.39
2019-01-03T06:33:04.288Z,20.34
2019-01-03T06:34:04.273Z,20.37
2019-01-03T06:35:04.275Z,20.30
2019-01-03T06:36:04.256Z,20.40
2019-01-03T06:37:04.239Z,20.37
2019-01-03T06:38:04.240Z,20.44
2019-01-03T06:39:04.225Z,20.39
2019-01-03T06:40:04.213Z,20.44
2019-01-03T06:41:04.210Z,20.42
2019-01-03T06:42:04.190Z,20.44
2019-01-03T06:43:04.191Z,20.50
2019-01-03T06:44:04.172Z,20.46
2019-01-03T06:45:04.172Z,20.50
2019-01-03T06:46:04.150Z,20.44
2019-01-03T06:47:04.140Z,20.52
2019-01-03T06:48:04.127Z,20.49
2019-01-03T06:49:04.118Z,20.52
2019-01-03T06:50:04.109Z,20.52
2019-01-03T06:51:04.099Z,20.53
2019-01-03T06:52:04.084Z,20.50
2019-01-03T06:53:04.078Z,20.49
2019-01-03T06:54:04.061Z,20.52
2019-01-03T06:55:04.055Z,20.48
2019-01-03T06:56:04.045Z,20.53
2019-01-03T06:57:04.035Z,20.56
2019-01-03T06:58:04.024Z,20.53
2019-01-03T06:59:04.021Z,20.53
2019-01-03T07:00:04.003Z,20.52
2019-01-03T07:01:03.988Z,20.56
2019-01-03T07:02:03.978Z,20.53
2019-01-03T07:03:03.971Z,20.53
2019-01-03T07:04:03.959Z,20.48
2019-01-03T07:05:03.949Z,20.53
2019-01-03T07:06:03.937Z,20.46
2019-01-03T07:07:03.930Z,20.48
2019-01-03T07:08:03.920Z,20.50
2019-01-03T07:09:03.913Z,20.46
2019-01-03T07:10:03.894Z,20.52
2019-01-03T07:11:03.885Z,20.53
2019-01-03T07:12:03.875Z,20.49
2019-01-03T07:13:03.871Z,20.46
2019-01-03T07:14:03.853Z,20.56
2019-01-03T07:15:03.843Z,20.46
2019-01-03T07:16:03.835Z,20.46
2019-01-03T07:17:03.817Z,20.46
2019-01-03T07:18:03.814Z,20.56
2019-01-03T07:19:03.803Z,20.46
2019-01-03T07:20:03.794Z,20.44
2019-01-03T07:21:03.777Z,20.44
2019-01-03T07:22:03.774Z,20.46
2019-01-03T07:23:03.760Z,20.44
2019-01-03T07:24:03.749Z,20.42
2019-01-03T07:25:03.742Z,20.48
2019-01-03T07:26:03.728Z,20.42
2019-01-03T07:27:03.718Z,20.44
2019-01-03T07:28:03.713Z,20.44
2019-01-03T07:29:03.695Z,20.40
2019-01-03T07:30:03.682Z,20.40
2019-01-03T07:31:03.682Z,20.48
2019-01-03T07:32:03.664Z,20.44
2019-01-03T07:33:03.652Z,20.42
2019-01-03T07:34:03.645Z,20.40
2019-01-03T07:35:03.635Z,20.46
2019-01-03T07:36:03.627Z,20.46
2019-01-03T07:37:03.619Z,20.42
2019-01-03T07:38:03.602Z,20.42
2019-01-03T07:39:03.587Z,20.44
2019-01-03T07:40:03.583Z,20.46
2019-01-03T07:41:03.562Z,20.46
2019-01-03T07:42:03.558Z,20.42
2019-01-03T07:43:03.549Z,20.46
2019-01-03T07:44:03.540Z,20.52
2019-01-03T07:45:03.525Z,20.49
2019-01-03T07:46:03.519Z,20.46
2019-01-03T07:47:03.509Z,20.52
2019-01-03T07:48:03.490Z,20.53
2019-01-03T07:49:03.481Z,20.50
2019-01-03T07:50:03.481Z,20.55
2019-01-03T07:51:03.464Z,20.52
2019-01-03T07:52:03.457Z,20.50
2019-01-03T07:53:03.448Z,20.52
2019-01-03T07:54:03.432Z,20.50
2019-01-03T07:55:03.430Z,20.53
2019-01-03T07:56:03.413Z,20.53
2019-01-03T07:57:03.400Z,20.50
2019-01-03T07:58:03.383Z,20.52
2019-01-03T07:59:03.378Z,20.53
2019-01-03T08:00:03.368Z,20.50
2019-01-03T08:01:03.366Z,20.50
2019-01-03T08:02:03.348Z,20.50
2019-01-03T08:03:03.336Z,20.42
2019-01-03T08:04:03.333Z,20.46
2019-01-03T08:05:03.321Z,20.40
2019-01-03T08:06:03.301Z,20.40
2019-01-03T08:07:03.294Z,20.49
2019-01-03T08:08:03.287Z,20.49
2019-01-03T08:09:03.272Z,20.46
2019-01-03T08:10:03.267Z,20.44
2019-01-03T08:11:03.253Z,20.56
2019-01-03T08:12:03.241Z,20.48
2019-01-03T08:13:03.253Z,20.52
2019-01-03T08:14:03.225Z,20.46
2019-01-03T08:15:03.210Z,20.46
2019-01-03T08:16:03.199Z,20.46
2019-01-03T08:17:03.191Z,20.42
2019-01-03T08:18:03.188Z,20.50
2019-01-03T08:19:03.169Z,20.50
2019-01-03T08:20:03.158Z,20.46
2019-01-03T08:21:03.154Z,20.40
2019-01-03T08:22:03.137Z,20.48
2019-01-03T08:23:03.124Z,20.46
2019-01-03T08:24:03.118Z,20.44
2019-01-03T08:25:03.103Z,20.56
2019-01-03T08:26:03.093Z,20.46
2019-01-03T08:27:03.090Z,20.44
2019-01-03T08:28:03.075Z,20.49
2019-01-03T08:29:03.060Z,20.55
2019-01-03T08:30:03.051Z,20.49
2019-01-03T08:31:03.043Z,20.50
2019-01-03T08:32:03.036Z,20.53
2019-01-03T08:33:03.021Z,20.50
2019-01-03T08:34:03.013Z,20.49
2019-01-03T08:35:02.995Z,20.53
2019-01-03T08:36:02.991Z,20.52
2019-01-03T08:37:02.991Z,20.55
2019-01-03T08:38:02.967Z,20.53
2019-01-03T08:39:02.957Z,20.55
2019-01-03T08:40:02.946Z,20.56
2019-01-03T08:41:02.939Z,20.63
2019-01-03T08:42:02.928Z,20.64
2019-01-03T08:43:02.914Z,20.64
2019-01-03T08:44:02.908Z,20.63
2019-01-03T08:45:02.894Z,20.58
2019-01-03T08:46:02.887Z,20.60
2019-01-03T08:47:02.877Z,20.63
2019-01-03T08:48:02.865Z,20.67
2019-01-03T08:49:02.852Z,20.66
2019-01-03T08:50:02.837Z,20.63
2019-01-03T08:51:02.830Z,20.63
2019-01-03T08:52:02.820Z,20.63
2019-01-03T08:53:02.810Z,20.58
2019-01-03T08:54:02.797Z,20.64
2019-01-03T08:55:02.788Z,20.53
2019-01-03T08:56:02.782Z,20.59
2019-01-03T08:57:02.767Z,20.56
2019-01-03T08:58:02.767Z,20.53
2019-01-03T08:59:02.744Z,20.60
2019-01-03T09:00:02.743Z,20.53
2019-01-03T09:01:02.722Z,20.53
2019-01-03T09:02:02.712Z,20.55
2019-01-03T09:03:02.702Z,20.55
2019-01-03T09:04:02.817Z,20.53
2019-01-03T09:05:03.007Z,20.55
2019-01-03T09:06:02.678Z,20.52
2019-01-03T09:07:03.337Z,20.50
2019-01-03T09:08:02.653Z,20.50
2019-01-03T09:09:02.646Z,20.55
2019-01-03T09:10:02.635Z,20.49
2019-01-03T09:11:02.644Z,20.50
2019-01-03T09:12:02.604Z,20.53
2019-01-03T09:13:02.594Z,20.52
2019-01-03T09:14:02.586Z,20.55
2019-01-03T09:15:02.573Z,20.49
2019-01-03T09:16:02.567Z,20.53
2019-01-03T09:17:02.555Z,20.53
2019-01-03T09:18:02.544Z,20.52
2019-01-03T09:19:02.534Z,20.48
2019-01-03T09:20:02.536Z,20.53
2019-01-03T09:21:02.510Z,20.53
2019-01-03T09:22:02.502Z,20.50
2019-01-03T09:23:02.498Z,20.53
2019-01-03T09:24:02.484Z,20.50
2019-01-03T09:25:02.536Z,20.53
2019-01-03T09:26:02.460Z,20.53
2019-01-03T09:27:02.451Z,20.50
2019-01-03T09:28:02.440Z,20.52
2019-01-03T09:29:02.430Z,20.48
2019-01-03T09:30:02.414Z,20.49
2019-01-03T09:31:02.408Z,20.50
2019-01-03T09:32:02.400Z,20.44
2019-01-03T09:33:02.387Z,20.52
2019-01-03T09:34:02.374Z,20.56
2019-01-03T09:35:02.366Z,20.53
2019-01-03T09:36:02.356Z,20.56
2019-01-03T09:37:02.348Z,20.50
2019-01-03T09:38:02.341Z,20.48
2019-01-03T09:39:02.324Z,20.50
2019-01-03T09:40:02.306Z,20.52
2019-01-03T09:41:02.301Z,20.53
2019-01-03T09:42:02.300Z,20.55
2019-01-03T09:43:02.284Z,20.55
2019-01-03T09:44:02.269Z,20.50
2019-01-03T09:45:02.257Z,20.49
2019-01-03T09:46:02.281Z,20.56
2019-01-03T09:47:02.254Z,20.56
2019-01-03T09:48:02.233Z,20.52
2019-01-03T09:49:02.213Z,20.55
2019-01-03T09:50:02.204Z,20.53
2019-01-03T09:51:02.201Z,20.55
2019-01-03T09:52:02.186Z,20.59
2019-01-03T09:53:02.174Z,20.60
2019-01-03T09:54:02.167Z,20.60
2019-01-03T09:55:02.172Z,20.63
2019-01-03T09:56:02.143Z,20.55
2019-01-03T09:57:02.133Z,20.58
2019-01-03T09:58:02.119Z,20.56
2019-01-03T09:59:02.108Z,20.55
2019-01-03T10:00:02.108Z,20.56
2019-01-03T10:01:02.092Z,20.55
2019-01-03T10:02:02.082Z,20.59
2019-01-03T10:03:02.069Z,20.52
2019-01-03T10:04:02.059Z,20.55
2019-01-03T10:05:02.059Z,20.58
2019-01-03T10:06:02.038Z,20.56
2019-01-03T10:07:02.028Z,20.55
2019-01-03T10:08:02.015Z,20.56
2019-01-03T10:09:02.008Z,20.55
2019-01-03T10:10:01.994Z,20.52
2019-01-03T10:11:01.992Z,20.56
2019-01-03T10:12:01.978Z,20.55
2019-01-03T10:13:01.965Z,20.53
2019-01-03T10:14:01.956Z,20.58
2019-01-03T10:15:01.968Z,20.56
2019-01-03T10:16:01.935Z,20.53
2019-01-03T10:17:01.925Z,20.49
2019-01-03T10:18:01.913Z,20.58
2019-01-03T10:19:01.900Z,20.50
2019-01-03T10:20:01.893Z,20.55
2019-01-03T10:21:01.881Z,20.53
2019-01-03T10:22:01.871Z,20.50
2019-01-03T10:23:01.857Z,20.50
2019-01-03T10:24:01.849Z,20.36
2019-01-03T10:25:01.839Z,20.18
2019-01-03T10:26:01.828Z,20.14
2019-01-03T10:27:01.819Z,19.97
2019-01-03T10:28:01.814Z,19.99
2019-01-03T10:29:01.796Z,19.92
2019-01-03T10:30:01.784Z,19.94
2019-01-03T10:31:01.772Z,19.93
2019-01-03T10:32:01.766Z,20.04
2019-01-03T10:33:01.763Z,20.00
2019-01-03T10:34:01.743Z,20.07
2019-01-03T10:35:01.733Z,20.07
2019-01-03T10:36:01.724Z,20.11
2019-01-03T10:37:01.712Z,20.08
2019-01-03T10:38:01.703Z,20.14
2019-01-03T10:39:01.692Z,20.18
2019-01-03T10:40:01.685Z,20.22
2019-01-03T10:41:01.672Z,20.19
2019-01-03T10:42:01.659Z,20.15
2019-01-03T10:43:01.651Z,20.27
2019-01-03T10:44:01.640Z,20.30
2019-01-03T10:45:01.624Z,20.21
2019-01-03T10:46:01.621Z,20.37
2019-01-03T10:47:01.604Z,20.39
2019-01-03T10:48:01.592Z,20.32
2019-01-03T10:49:01.584Z,20.32
2019-01-03T10:50:01.573Z,20.33
2019-01-03T10:51:01.559Z,20.37
2019-01-03T10:52:01.552Z,20.40
2019-01-03T10:53:01.544Z,20.42
2019-01-03T10:54:01.529Z,20.42
2019-01-03T10:55:01.526Z,20.48
2019-01-03T10:56:01.516Z,20.46
2019-01-03T10:57:01.498Z,20.53
2019-01-03T10:58:01.485Z,20.49
2019-01-03T10:59:01.482Z,20.49
2019-01-03T11:00:01.469Z,20.56
2019-01-03T11:01:01.456Z,20.49
2019-01-03T11:02:01.444Z,20.56
2019-01-03T11:03:01.444Z,20.50
2019-01-03T11:04:01.430Z,20.50
2019-01-03T11:05:01.418Z,20.56
2019-01-03T11:06:01.403Z,20.50
2019-01-03T11:07:01.392Z,20.53
2019-01-03T11:08:01.381Z,20.56
2019-01-03T11:09:01.368Z,20.52
2019-01-03T11:10:01.366Z,20.52
2019-01-03T11:11:02.239Z,20.53
2019-01-03T11:12:01.337Z,20.50
2019-01-03T11:13:01.327Z,20.55
2019-01-03T11:14:01.326Z,20.53
2019-01-03T11:15:01.308Z,20.55
2019-01-03T11:16:01.298Z,20.52
2019-01-03T11:17:01.285Z,20.52
2019-01-03T11:18:01.274Z,20.52
2019-01-03T11:19:01.274Z,20.49
2019-01-03T11:20:01.256Z,20.55
2019-01-03T11:21:01.242Z,20.50
2019-01-03T11:22:01.226Z,20.52
2019-01-03T11:23:01.222Z,20.53
2019-01-03T11:24:01.216Z,20.50
2019-01-03T11:25:01.198Z,20.49
2019-01-03T11:26:01.190Z,20.53
2019-01-03T11:27:01.177Z,20.55
2019-01-03T11:28:01.168Z,20.53
2019-01-03T11:29:01.162Z,20.52
2019-01-03T11:30:01.152Z,20.48
2019-01-03T11:31:02.108Z,20.50
2019-01-03T11:32:01.128Z,20.53
2019-01-03T11:33:01.118Z,20.49
2019-01-03T11:34:01.111Z,20.55
2019-01-03T11:35:01.108Z,20.46
2019-01-03T11:36:01.085Z,20.55
2019-01-03T11:37:01.073Z,20.49
2019-01-03T11:38:01.061Z,20.52
2019-01-03T11:39:01.053Z,20.49
2019-01-03T11:40:01.041Z,20.53
2019-01-03T11:41:01.024Z,20.56
2019-01-03T11:42:01.019Z,20.60
2019-01-03T11:43:01.007Z,20.68
2019-01-03T11:44:00.999Z,20.60
2019-01-03T11:45:00.993Z,20.58
2019-01-03T11:46:00.976Z,20.64
2019-01-03T11:47:00.973Z,20.68
2019-01-03T11:48:00.956Z,20.70
2019-01-03T11:49:00.941Z,20.63
2019-01-03T11:50:00.934Z,20.63
2019-01-03T11:51:00.925Z,20.59
2019-01-03T11:52:00.916Z,20.63
2019-01-03T11:53:00.910Z,20.64
2019-01-03T11:54:00.893Z,20.60
2019-01-03T11:55:00.885Z,20.68
2019-01-03T11:56:00.869Z,20.56
2019-01-03T11:57:00.866Z,20.32
2019-01-03T11:58:00.873Z,20.18
2019-01-03T11:59:00.836Z,20.10
2019-01-03T12:00:00.861Z,20.12
2019-01-03T12:01:00.825Z,20.03
2019-01-03T12:02:00.808Z,20.07
2019-01-03T12:03:00.802Z,20.12
2019-01-03T12:04:00.789Z,20.18
2019-01-03T12:05:00.777Z,20.12
2019-01-03T12:06:00.772Z,20.21
2019-01-03T12:07:00.772Z,20.19
2019-01-03T12:08:00.746Z,20.19
2019-01-03T12:09:00.743Z,20.17
2019-01-03T12:10:00.732Z,20.33
2019-01-03T12:11:00.707Z,20.34
2019-01-03T12:12:00.738Z,20.29
2019-01-03T12:13:00.693Z,20.30
2019-01-03T12:14:00.680Z,20.40
2019-01-03T12:15:00.685Z,20.42
2019-01-03T12:16:00.657Z,20.40
2019-01-03T12:17:00.651Z,20.52
2019-01-03T12:18:00.652Z,20.49
2019-01-03T12:19:00.641Z,20.53
2019-01-03T12:20:00.616Z,20.60
2019-01-03T12:21:00.616Z,20.52
2019-01-03T12:22:00.606Z,20.70
2019-01-03T12:23:00.589Z,20.70
2019-01-03T12:24:00.578Z,20.58
2019-01-03T12:25:00.594Z,20.68
2019-01-03T12:26:00.568Z,20.68
2019-01-03T12:27:00.542Z,20.60
2019-01-03T12:28:00.537Z,20.68
2019-01-03T12:29:00.520Z,20.73
2019-01-03T12:30:00.517Z,20.67
2019-01-03T12:31:00.500Z,20.71
2019-01-03T12:32:00.502Z,20.66
2019-01-03T12:33:00.498Z,20.77
2019-01-03T12:34:00.477Z,20.78
2019-01-03T12:35:00.454Z,20.67
2019-01-03T12:36:00.447Z,20.78
2019-01-03T12:37:00.648Z,20.71
2019-01-03T12:38:00.981Z,20.80
2019-01-03T12:39:00.539Z,20.83
2019-01-03T12:40:00.408Z,20.85
2019-01-03T12:41:00.406Z,20.83
2019-01-03T12:42:00.393Z,20.88
2019-01-03T12:43:00.379Z,20.88
2019-01-03T12:44:00.370Z,20.89
2019-01-03T12:45:00.354Z,20.88
2019-01-03T12:46:00.339Z,20.88
2019-01-03T12:47:00.368Z,20.86
2019-01-03T12:48:00.322Z,20.83
2019-01-03T12:49:00.307Z,20.92
2019-01-03T12:50:00.313Z,20.86
2019-01-03T12:51:00.299Z,20.85
2019-01-03T12:52:00.288Z,20.80